Time;durP1;ratioP1;P1;durP2;ratioP2;P2;SDS_P1;SDS_P2;PMS_P1;PMS_P2;Temp;Humidity;BMP_temperature;BMP_pressure;BME280_temperature;BME280_humidity;BME280_pressure;Samples;Min_cycle;Max_cycle;Signal;HPM_P1;HPM_P2
2021/10/05 00:01:01;;;;;;;4.20;4.00;;;;;;;9.03;90.52;100948.84;4383835;32;20195;-68
2021/10/05 00:03:27;;;;;;;4.43;4.22;;;;;;;9.02;91.57;100955.00;4379545;32;20077;-68
2021/10/05 00:05:52;;;;;;;4.18;3.97;;;;;;;8.99;90.96;100949.88;4380538;32;20065;-68
2021/10/05 00:08:18;;;;;;;6.00;5.70;;;;;;;8.94;91.88;100941.34;4375945;32;20427;-68
2021/10/05 00:10:43;;;;;;;4.18;3.97;;;;;;;8.91;91.30;100925.78;4368726;32;20081;-69
2021/10/05 00:13:08;;;;;;;5.03;4.82;;;;;;;8.93;92.26;100939.66;4369743;32;20627;-67
2021/10/05 00:15:34;;;;;;;4.15;3.95;;;;;;;8.91;91.95;100939.72;4378827;32;20085;-68
2021/10/05 00:17:59;;;;;;;4.10;3.90;;;;;;;8.94;91.61;100936.13;4396009;32;20327;-68
2021/10/05 00:20:25;;;;;;;5.43;5.22;;;;;;;8.93;92.01;100937.91;4385987;32;20064;-69
2021/10/05 00:22:50;;;;;;;4.10;3.90;;;;;;;8.91;92.02;100925.78;4399283;32;20627;-68
2021/10/05 00:25:15;;;;;;;5.93;5.62;;;;;;;8.92;92.65;100932.72;4399178;32;20057;-68
2021/10/05 00:27:41;;;;;;;4.20;4.00;;;;;;;8.97;92.04;100921.16;4379770;32;21073;-67
2021/10/05 00:30:06;;;;;;;4.05;3.85;;;;;;;8.96;93.14;100919.47;4394099;32;20065;-67
2021/10/05 00:32:32;;;;;;;4.45;4.25;;;;;;;8.98;93.21;100908.94;4398592;32;20073;-69
2021/10/05 00:34:57;;;;;;;4.35;4.15;;;;;;;8.96;93.61;100905.50;4395818;32;20089;-69
2021/10/05 00:37:22;;;;;;;5.10;4.90;;;;;;;8.95;93.63;100904.66;4389882;32;20085;-69
2021/10/05 00:39:48;;;;;;;4.30;4.10;;;;;;;8.78;92.80;100881.81;4392808;32;20064;-67
2021/10/05 00:42:13;;;;;;;4.20;4.00;;;;;;;8.41;92.60;100805.75;4389784;32;20065;-67
2021/10/05 00:44:39;;;;;;;4.30;4.10;;;;;;;8.98;93.17;100906.31;4394739;32;20081;-67
2021/10/05 00:47:12;;;;;;;4.30;4.10;;;;;;;8.79;92.50;100864.34;4388707;32;20087;-68
2021/10/05 00:49:38;;;;;;;3.80;3.70;;;;;;;8.96;93.37;100892.41;4404722;32;20311;-67
2021/10/05 00:52:04;;;;;;;4.10;3.90;;;;;;;7.77;92.65;100710.75;4390658;32;20557;-68
2021/10/05 00:54:34;;;;;;;4.35;4.15;;;;;;;8.83;93.02;100883.41;4384455;32;20069;-67
2021/10/05 00:57:00;;;;;;;4.30;4.10;;;;;;;8.86;94.27;100889.34;4382499;32;20606;-67
2021/10/05 00:59:25;;;;;;;4.70;4.50;;;;;;;8.91;93.63;100879.53;4399646;32;20145;-67
2021/10/05 01:01:50;;;;;;;4.80;4.60;;;;;;;8.92;93.47;100875.13;4383056;32;20069;-67
2021/10/05 01:04:16;;;;;;;5.82;5.57;;;;;;;8.88;93.64;100874.44;4393792;32;20081;-67
2021/10/05 01:06:53;;;;;;;4.20;4.00;;;;;;;8.87;94.63;100867.47;4371620;32;20681;-67
2021/10/05 01:09:18;;;;;;;6.05;5.75;;;;;;;8.87;94.36;100870.09;4379093;32;20072;-68
2021/10/05 01:11:44;;;;;;;4.20;4.00;;;;;;;8.86;93.46;100867.53;4384394;32;20068;-68
2021/10/05 01:14:09;;;;;;;5.18;4.97;;;;;;;8.82;93.72;100864.22;4379560;32;20093;-67
2021/10/05 01:16:35;;;;;;;5.53;5.32;;;;;;;8.72;94.62;100841.97;4386854;32;20061;-69
2021/10/05 01:19:00;;;;;;;4.00;3.80;;;;;;;8.81;94.49;100859.91;4396929;32;20890;-68
2021/10/05 01:21:25;;;;;;;4.32;4.12;;;;;;;8.84;94.63;100845.81;4381046;32;20076;-67
2021/10/05 01:23:51;;;;;;;3.87;3.78;;;;;;;8.27;94.72;100762.72;4389883;32;20065;-67
2021/10/05 01:26:16;;;;;;;5.60;5.40;;;;;;;8.91;93.90;100855.13;4418218;32;20607;-67
2021/10/05 01:28:41;;;;;;;4.25;4.05;;;;;;;8.88;93.81;100832.56;4407911;32;20087;-67
2021/10/05 01:31:07;;;;;;;4.12;3.92;;;;;;;8.91;95.09;100835.03;4394311;32;20081;-67
2021/10/05 01:33:32;;;;;;;4.30;4.10;;;;;;;8.91;94.15;100821.94;4380710;32;22349;-67
2021/10/05 01:35:57;;;;;;;4.30;4.10;;;;;;;8.94;94.50;100820.94;4408086;32;20080;-68
2021/10/05 01:38:23;;;;;;;5.62;5.43;;;;;;;8.95;94.50;100818.28;4396329;32;20088;-67
2021/10/05 01:40:48;;;;;;;3.87;3.78;;;;;;;8.96;93.84;100816.50;4381813;32;20073;-67
2021/10/05 01:43:14;;;;;;;5.62;5.43;;;;;;;8.96;94.14;100811.25;4390579;32;20073;-67
2021/10/05 01:45:40;;;;;;;3.85;3.75;;;;;;;8.99;93.57;100800.69;4402860;32;20091;-68
2021/10/05 01:48:06;;;;;;;4.10;3.90;;;;;;;8.97;94.26;100795.50;4392586;32;20064;-69
2021/10/05 01:50:31;;;;;;;4.15;3.95;;;;;;;8.96;94.41;100801.66;4392494;32;20520;-69
2021/10/05 01:52:57;;;;;;;4.70;4.50;;;;;;;8.94;94.30;100795.66;4380702;32;20073;-69
2021/10/05 01:55:22;;;;;;;5.72;5.50;;;;;;;8.75;93.69;100769.41;4400445;32;20065;-69
2021/10/05 01:57:48;;;;;;;4.03;3.85;;;;;;;8.90;94.64;100790.59;4357246;32;20081;-67
2021/10/05 02:00:13;;;;;;;5.53;5.32;;;;;;;8.90;93.98;100785.38;4399460;32;20431;-67
2021/10/05 02:02:39;;;;;;;4.10;3.90;;;;;;;8.84;94.02;100781.28;4374834;32;20684;-70
2021/10/05 02:05:05;;;;;;;3.80;3.70;;;;;;;8.31;93.99;100705.91;4407097;32;20412;-67
2021/10/05 02:07:30;;;;;;;4.60;4.40;;;;;;;8.79;94.60;100791.91;4391722;32;20062;-68
2021/10/05 02:09:56;;;;;;;4.30;4.10;;;;;;;8.79;95.17;100778.00;4400518;32;20064;-69
2021/10/05 02:12:21;;;;;;;5.47;5.28;;;;;;;8.84;94.40;100769.94;4377854;32;20070;-69
2021/10/05 02:14:46;;;;;;;4.20;4.00;;;;;;;8.83;94.81;100770.88;4391108;32;20080;-69
2021/10/05 02:17:13;;;;;;;6.05;5.75;;;;;;;8.81;94.66;100777.94;4367802;32;20370;-69
2021/10/05 02:19:38;;;;;;;4.65;4.45;;;;;;;8.83;95.01;100757.78;4407845;32;20573;-69
2021/10/05 02:22:04;;;;;;;4.05;3.85;;;;;;;8.84;94.74;100751.63;4372741;32;20072;-69
2021/10/05 02:26:56;;;;;;;3.80;3.70;;;;;;;8.87;94.31;100749.72;4382665;32;20062;-69
2021/10/05 02:29:21;;;;;;;4.05;3.85;;;;;;;8.85;95.27;100745.47;4397659;32;20654;-69
2021/10/05 02:31:47;;;;;;;3.80;3.70;;;;;;;8.85;94.70;100737.63;4392697;32;20132;-69
2021/10/05 02:34:13;;;;;;;4.00;3.80;;;;;;;8.84;95.40;100733.28;4393839;32;20170;-68
2021/10/05 02:36:39;;;;;;;4.20;4.00;;;;;;;8.84;95.61;100725.44;4353656;32;20088;-69
2021/10/05 02:39:05;;;;;;;3.70;3.60;;;;;;;8.89;95.23;100731.34;4380680;32;20074;-69
2021/10/05 02:41:30;;;;;;;4.00;3.80;;;;;;;8.95;95.20;100729.28;4381356;32;20663;-68
2021/10/05 02:43:55;;;;;;;4.45;4.25;;;;;;;8.94;95.23;100724.97;4372081;32;20327;-69
2021/10/05 02:46:21;;;;;;;5.78;5.55;;;;;;;8.89;94.09;100721.72;4364176;32;20316;-68
2021/10/05 02:48:46;;;;;;;3.78;3.67;;;;;;;8.90;95.26;100722.56;4375723;32;20074;-68
2021/10/05 02:51:11;;;;;;;5.37;5.18;;;;;;;8.87;95.26;100707.84;4384172;32;20674;-68
2021/10/05 02:53:37;;;;;;;4.30;4.10;;;;;;;8.94;95.51;100706.66;4381688;32;20104;-69
2021/10/05 02:56:02;;;;;;;4.00;3.80;;;;;;;8.98;95.37;100702.97;4380254;32;20081;-69
2021/10/05 02:58:27;;;;;;;4.53;4.32;;;;;;;8.98;95.39;100708.22;4375703;32;21076;-69
2021/10/05 03:00:53;;;;;;;4.10;3.90;;;;;;;8.92;94.77;100703.25;4387229;32;20142;-69
2021/10/05 03:03:18;;;;;;;5.35;5.15;;;;;;;8.91;95.02;100701.56;4385755;32;20061;-69
2021/10/05 03:05:43;;;;;;;4.45;4.25;;;;;;;8.93;95.34;100697.09;4375797;32;20073;-68
2021/10/05 03:08:09;;;;;;;4.50;4.30;;;;;;;8.91;94.65;100687.63;4397301;32;20076;-68
2021/10/05 03:10:35;;;;;;;4.10;3.90;;;;;;;8.96;94.38;100691.72;4377952;32;20682;-69
2021/10/05 03:13:00;;;;;;;4.20;4.00;;;;;;;8.95;95.25;100691.81;4373904;32;20065;-69
2021/10/05 03:15:25;;;;;;;4.80;4.50;;;;;;;8.95;94.50;100692.62;4384146;32;20164;-68
2021/10/05 03:17:51;;;;;;;4.40;4.20;;;;;;;8.91;95.21;100690.25;4395053;32;20629;-68
2021/10/05 03:20:16;;;;;;;5.60;5.40;;;;;;;8.89;95.37;100685.06;4381647;32;20127;-67
2021/10/05 03:22:41;;;;;;;4.30;4.10;;;;;;;8.86;94.81;100680.00;4365684;32;20069;-67
2021/10/05 03:25:07;;;;;;;4.10;3.90;;;;;;;8.88;95.50;100679.91;4397458;32;20065;-69
2021/10/05 03:27:35;;;;;;;4.00;3.80;;;;;;;8.77;94.32;100660.31;4390227;32;20153;-67
2021/10/05 03:30:03;;;;;;;4.12;3.92;;;;;;;8.82;94.82;100661.84;4397954;32;20057;-69
2021/10/05 03:32:29;;;;;;;4.30;4.10;;;;;;;8.77;95.24;100662.91;4404748;32;20397;-69
2021/10/05 03:34:54;;;;;;;4.37;4.15;;;;;;;8.77;95.54;100660.31;4392046;32;20060;-67
2021/10/05 03:37:20;;;;;;;5.82;5.53;;;;;;;8.79;95.58;100657.63;4409182;32;20648;-68
2021/10/05 03:39:45;;;;;;;3.78;3.67;;;;;;;8.82;96.07;100654.00;4391863;32;20057;-69
2021/10/05 03:42:10;;;;;;;5.80;5.55;;;;;;;8.82;95.63;100640.94;4394140;32;20060;-69
2021/10/05 03:44:36;;;;;;;4.22;4.03;;;;;;;8.82;96.24;100625.22;4387766;32;20511;-68
2021/10/05 03:47:01;;;;;;;3.80;3.70;;;;;;;7.78;95.06;100461.69;4395088;32;20483;-68
2021/10/05 03:49:27;;;;;;;4.47;4.28;;;;;;;8.91;95.11;100646.59;4392206;32;20315;-67
2021/10/05 03:51:52;;;;;;;4.05;3.85;;;;;;;8.90;95.91;100638.81;4399153;32;20087;-67
2021/10/05 03:54:17;;;;;;;5.37;5.18;;;;;;;8.90;95.33;100638.81;4400219;32;20867;-67
2021/10/05 03:56:43;;;;;;;4.10;3.90;;;;;;;8.84;96.02;100632.09;4392735;32;20089;-67
2021/10/05 03:59:08;;;;;;;4.30;4.10;;;;;;;8.88;96.17;100638.91;4390980;32;20073;-69
2021/10/05 04:01:34;;;;;;;4.15;3.95;;;;;;;8.37;96.24;100565.28;4404051;32;20072;-69
2021/10/05 04:03:59;;;;;;;4.10;3.90;;;;;;;8.82;95.99;100630.47;4395497;32;20072;-69
2021/10/05 04:06:24;;;;;;;4.62;4.43;;;;;;;8.77;96.33;100625.44;4371338;32;20881;-66
2021/10/05 04:08:50;;;;;;;4.00;3.80;;;;;;;8.75;96.06;100630.75;4380672;32;20099;-69
2021/10/05 04:11:15;;;;;;;4.87;4.68;;;;;;;8.15;96.15;100539.25;4388586;32;20061;-69
2021/10/05 04:13:40;;;;;;;4.00;3.80;;;;;;;8.67;96.35;100622.41;4390155;32;20146;-67
2021/10/05 04:16:06;;;;;;;4.07;3.87;;;;;;;6.24;96.69;100220.44;4395844;32;20114;-67
2021/10/05 04:18:32;;;;;;;3.80;3.70;;;;;;;8.71;96.03;100612.66;4392475;32;20083;-67
2021/10/05 04:20:57;;;;;;;3.80;3.70;;;;;;;8.71;96.41;100605.63;4378122;32;20195;-67
2021/10/05 04:23:23;;;;;;;5.68;5.45;;;;;;;8.76;96.95;100608.06;4387787;32;20168;-67
2021/10/05 04:25:48;;;;;;;4.05;3.85;;;;;;;8.79;97.32;100605.28;4377740;32;20529;-67
2021/10/05 04:28:14;;;;;;;5.57;5.28;;;;;;;8.82;98.02;100602.53;4380854;32;20123;-69
2021/10/05 04:30:40;;;;;;;3.80;3.70;;;;;;;8.85;97.17;100599.78;4390317;32;20578;-69
2021/10/05 04:33:05;;;;;;;3.90;3.75;;;;;;;8.84;97.82;100592.84;4383494;32;20163;-67
2021/10/05 04:35:31;;;;;;;4.30;4.10;;;;;;;8.85;97.96;100586.69;4392334;32;20118;-67
2021/10/05 04:37:56;;;;;;;3.70;3.60;;;;;;;8.91;98.16;100588.16;4381272;32;20692;-68
2021/10/05 04:40:21;;;;;;;5.65;5.45;;;;;;;8.94;97.82;100583.66;4394957;32;20085;-67
2021/10/05 04:42:47;;;;;;;4.10;3.90;;;;;;;8.92;97.97;100577.62;4379694;32;20143;-69
2021/10/05 04:45:13;;;;;;;7.47;7.18;;;;;;;8.98;97.65;100597.44;4395444;32;20134;-68
2021/10/05 04:47:39;;;;;;;3.95;3.80;;;;;;;9.01;97.06;100578.97;4380525;32;20159;-67
2021/10/05 04:50:05;;;;;;;3.80;3.70;;;;;;;8.98;96.79;100576.50;4394204;32;20425;-67
2021/10/05 04:52:31;;;;;;;4.00;3.80;;;;;;;8.92;97.74;100575.03;4383173;32;20455;-69
2021/10/05 04:54:56;;;;;;;4.30;4.10;;;;;;;8.87;97.62;100573.53;4392856;32;20068;-67
2021/10/05 04:57:21;;;;;;;4.20;4.00;;;;;;;8.86;97.80;100569.22;4384311;32;20069;-67
2021/10/05 04:59:47;;;;;;;3.90;3.78;;;;;;;8.84;97.53;100571.03;4381496;32;20085;-68
2021/10/05 05:02:12;;;;;;;4.10;3.90;;;;;;;8.85;97.94;100562.28;4383354;32;20153;-67
2021/10/05 05:04:37;;;;;;;4.20;4.00;;;;;;;8.83;98.38;100562.34;4371132;32;20567;-69
2021/10/05 05:07:03;;;;;;;4.03;3.85;;;;;;;7.55;97.47;100345.16;4393384;32;20128;-69
2021/10/05 05:09:29;;;;;;;3.80;3.70;;;;;;;8.88;97.58;100546.44;4389823;32;20068;-69
2021/10/05 05:11:54;;;;;;;3.90;3.80;;;;;;;8.87;98.52;100548.19;4367106;32;20081;-69
2021/10/05 05:14:20;;;;;;;5.65;5.45;;;;;;;8.87;97.66;100542.13;4367639;32;20151;-69
2021/10/05 05:16:47;;;;;;;4.07;3.87;;;;;;;8.83;98.61;100541.41;4374304;32;20085;-69
2021/10/05 05:19:12;;;;;;;5.65;5.45;;;;;;;8.63;98.62;100507.50;4366171;32;20196;-68
2021/10/05 05:21:38;;;;;;;4.20;4.00;;;;;;;8.83;98.51;100533.56;4382587;32;20524;-67
2021/10/05 05:24:03;;;;;;;4.10;3.90;;;;;;;8.84;98.69;100542.25;4375155;32;20172;-68
2021/10/05 05:26:29;;;;;;;4.00;3.80;;;;;;;7.85;98.31;100365.56;4381145;32;20077;-67
2021/10/05 05:28:54;;;;;;;3.80;3.70;;;;;;;8.84;98.85;100526.56;4377574;32;20061;-67
2021/10/05 05:31:20;;;;;;;3.70;3.60;;;;;;;8.83;98.85;100527.50;4397531;32;20107;-68
2021/10/05 05:33:45;;;;;;;3.90;3.72;;;;;;;8.84;98.46;100518.72;4395140;32;20075;-67
2021/10/05 05:36:11;;;;;;;5.32;5.12;;;;;;;8.84;98.34;100526.56;4388752;32;20104;-67
2021/10/05 05:38:36;;;;;;;3.70;3.60;;;;;;;8.90;98.52;100515.81;4377925;32;20409;-67
2021/10/05 05:41:01;;;;;;;3.80;3.70;;;;;;;8.91;99.15;100517.50;4392749;32;20064;-68
2021/10/05 05:43:27;;;;;;;4.40;4.20;;;;;;;8.90;99.58;100521.03;4381134;32;20778;-67
2021/10/05 05:45:52;;;;;;;3.87;3.75;;;;;;;8.85;99.54;100518.66;4374424;32;20065;-67
2021/10/05 05:48:18;;;;;;;5.45;5.25;;;;;;;8.87;98.51;100521.19;4361316;32;20686;-67
2021/10/05 05:50:44;;;;;;;4.10;3.90;;;;;;;8.89;99.10;100516.75;4392048;32;20437;-67
2021/10/05 05:53:09;;;;;;;4.85;4.68;;;;;;;8.95;99.71;100501.56;4378313;32;20459;-67
2021/10/05 05:55:34;;;;;;;3.80;3.70;;;;;;;8.96;99.17;100505.03;4378923;32;20064;-67
2021/10/05 05:58:08;;;;;;;3.90;3.78;;;;;;;8.97;100.00;100502.34;4394696;32;20081;-67
2021/10/05 06:00:33;;;;;;;4.20;4.00;;;;;;;9.03;98.80;100505.59;4405505;32;20214;-67
2021/10/05 06:02:59;;;;;;;4.07;3.90;;;;;;;9.04;99.89;100497.69;4398131;32;20060;-67
2021/10/05 06:05:24;;;;;;;4.70;4.50;;;;;;;9.04;98.85;100502.91;4381181;32;20176;-67
2021/10/05 06:07:49;;;;;;;3.70;3.60;;;;;;;8.98;99.66;100495.38;4383663;32;20585;-67
2021/10/05 06:10:15;;;;;;;3.80;3.70;;;;;;;8.97;98.85;100478.78;4378361;32;20061;-67
2021/10/05 06:12:41;;;;;;;3.85;3.75;;;;;;;9.14;98.86;100500.66;4370601;32;20107;-67
2021/10/05 06:15:08;;;;;;;3.80;3.70;;;;;;;9.19;99.00;100496.06;4385181;32;20084;-67
2021/10/05 06:17:36;;;;;;;4.05;3.85;;;;;;;9.19;98.64;100502.13;4366183;32;20127;-67
2021/10/05 06:20:02;;;;;;;4.10;3.90;;;;;;;9.23;99.31;100502.00;4384213;32;20154;-67
2021/10/05 06:22:28;;;;;;;4.00;3.83;;;;;;;9.14;98.60;100475.34;4390213;32;20125;-68
2021/10/05 06:24:53;;;;;;;4.25;4.05;;;;;;;9.28;98.51;100492.13;4387071;32;20124;-67
2021/10/05 06:27:18;;;;;;;5.65;5.45;;;;;;;9.28;98.67;100489.50;4406906;32;20610;-67
2021/10/05 06:29:44;;;;;;;4.07;3.87;;;;;;;9.27;98.77;100480.81;4388465;32;20076;-67
2021/10/05 06:32:09;;;;;;;5.50;5.28;;;;;;;9.28;98.42;100487.75;4389405;32;20442;-64
2021/10/05 06:34:34;;;;;;;4.40;4.20;;;;;;;9.27;98.54;100482.59;4395091;32;20382;-70
2021/10/05 06:37:00;;;;;;;3.85;3.75;;;;;;;9.35;98.88;100483.91;4380885;32;20745;-70
2021/10/05 06:39:25;;;;;;;5.20;5.00;;;;;;;9.39;98.01;100480.19;4393371;32;20073;-71
2021/10/05 06:41:51;;;;;;;3.80;3.70;;;;;;;9.45;98.54;100478.19;4395980;32;20068;-70
2021/10/05 06:44:16;;;;;;;5.60;5.40;;;;;;;9.50;98.28;100468.31;4383171;32;21132;-69
2021/10/05 06:46:42;;;;;;;3.90;3.80;;;;;;;9.56;98.37;100470.63;4387137;32;20134;-69
2021/10/05 06:49:07;;;;;;;4.22;4.03;;;;;;;9.62;97.40;100472.91;4400559;32;20127;-71
2021/10/05 06:51:33;;;;;;;4.47;4.28;;;;;;;9.60;98.12;100459.06;4386532;32;20117;-69
2021/10/05 06:53:58;;;;;;;4.00;3.80;;;;;;;9.71;97.75;100476.84;4384141;32;20077;-69
2021/10/05 06:56:24;;;;;;;5.47;5.28;;;;;;;9.81;97.80;100461.50;4394598;32;20943;-71
2021/10/05 06:58:50;;;;;;;4.40;4.20;;;;;;;9.90;96.79;100468.84;4396095;32;20065;-71
2021/10/05 07:01:15;;;;;;;5.85;5.60;;;;;;;9.99;96.99;100463.13;4404956;32;20090;-68
2021/10/05 07:03:41;;;;;;;4.45;4.25;;;;;;;10.08;96.29;100449.53;4384743;32;20145;-69
2021/10/05 07:06:06;;;;;;;4.30;4.10;;;;;;;10.23;95.81;100458.34;4377212;32;20070;-69
2021/10/05 07:08:31;;;;;;;4.28;4.07;;;;;;;10.30;95.74;100446.63;4385666;32;20064;-69
2021/10/05 07:10:57;;;;;;;4.78;4.57;;;;;;;10.52;95.20;100448.91;4391838;32;20697;-69
2021/10/05 07:13:22;;;;;;;5.90;5.65;;;;;;;10.60;94.34;100451.06;4405145;32;20069;-69
2021/10/05 07:15:47;;;;;;;4.20;4.00;;;;;;;10.74;93.50;100453.78;4392630;32;20500;-69
2021/10/05 07:18:13;;;;;;;6.22;5.93;;;;;;;10.75;92.52;100433.63;4379395;32;20072;-69
2021/10/05 07:20:38;;;;;;;4.30;4.10;;;;;;;10.92;92.20;100435.28;4386030;32;20089;-69
2021/10/05 07:23:04;;;;;;;4.40;4.20;;;;;;;10.99;91.24;100434.00;4377813;32;20097;-69
2021/10/05 07:25:29;;;;;;;4.40;4.20;;;;;;;11.05;91.27;100430.16;4378683;32;20070;-71
2021/10/05 07:27:55;;;;;;;4.40;4.20;;;;;;;11.11;90.83;100435.91;4377428;32;20578;-69
2021/10/05 07:30:23;;;;;;;6.05;5.75;;;;;;;11.29;90.58;100433.13;4374892;32;20500;-70
2021/10/05 07:32:51;;;;;;;4.70;4.50;;;;;;;11.52;89.66;100429.12;4392992;32;20593;-69
2021/10/05 07:35:16;;;;;;;6.25;5.95;;;;;;;11.64;88.46;100428.38;4389702;32;20659;-70
2021/10/05 07:37:42;;;;;;;4.30;4.10;;;;;;;11.57;87.74;100412.12;4394148;32;20637;-70
2021/10/05 07:40:07;;;;;;;4.70;4.50;;;;;;;11.75;87.01;100427.72;4389317;32;20658;-69
2021/10/05 07:42:33;;;;;;;4.28;4.07;;;;;;;11.77;86.67;100424.06;4405526;32;20207;-68
2021/10/05 07:44:58;;;;;;;4.50;4.30;;;;;;;11.80;86.43;100404.59;4379156;32;20606;-69
2021/10/05 07:47:23;;;;;;;6.25;5.95;;;;;;;11.96;85.44;100405.38;4400743;32;20443;-69
2021/10/05 07:49:51;;;;;;;4.30;4.10;;;;;;;12.07;84.96;100399.44;4387673;32;20586;-66
2021/10/05 07:52:18;;;;;;;5.72;5.50;;;;;;;12.17;84.38;100395.28;4376066;32;20073;-66
2021/10/05 07:54:43;;;;;;;4.50;4.30;;;;;;;12.24;84.12;100390.47;4364935;32;20500;-67
2021/10/05 07:57:08;;;;;;;5.22;5.03;;;;;;;12.21;83.25;100387.19;4384680;32;20065;-67
2021/10/05 07:59:34;;;;;;;4.50;4.30;;;;;;;12.12;83.25;100389.47;4357005;32;20084;-66
2021/10/05 08:02:00;;;;;;;4.25;4.05;;;;;;;12.05;83.87;100388.19;4364848;32;20058;-68
2021/10/05 08:04:25;;;;;;;5.62;5.32;;;;;;;12.14;84.32;100389.37;4359044;32;20089;-67
2021/10/05 08:06:51;;;;;;;4.60;4.40;;;;;;;12.35;83.02;100381.91;4382621;32;20607;-68
2021/10/05 08:09:17;;;;;;;5.87;5.62;;;;;;;12.52;82.18;100381.62;4358812;32;20212;-68
2021/10/05 08:11:42;;;;;;;4.40;4.20;;;;;;;12.66;81.23;100374.62;4362984;32;20086;-67
2021/10/05 08:14:08;;;;;;;4.90;4.70;;;;;;;12.78;80.08;100371.19;4356772;32;20812;-68
2021/10/05 08:16:34;;;;;;;4.85;4.65;;;;;;;12.86;79.97;100365.41;4346938;32;20960;-70
2021/10/05 08:18:59;;;;;;;4.50;4.30;;;;;;;13.06;78.92;100370.16;4358182;32;20156;-70
2021/10/05 08:21:25;;;;;;;5.10;4.90;;;;;;;13.21;77.72;100372.69;4358332;32;20621;-71
2021/10/05 08:23:52;;;;;;;4.70;4.50;;;;;;;13.27;77.34;100369.63;4370368;32;20071;-70
2021/10/05 08:26:18;;;;;;;7.00;6.62;;;;;;;13.24;77.08;100375.97;4375703;32;20215;-70
2021/10/05 08:28:43;;;;;;;4.50;4.30;;;;;;;13.30;77.07;100369.47;4377676;32;20097;-69
2021/10/05 08:31:09;;;;;;;5.40;5.12;;;;;;;11.94;76.72;100170.56;4369579;32;20100;-65
2021/10/05 08:33:34;;;;;;;4.65;4.45;;;;;;;13.42;76.63;100354.59;4347449;32;20078;-69
2021/10/05 08:36:00;;;;;;;4.70;4.50;;;;;;;13.67;76.37;100365.13;4390799;32;20065;-70
2021/10/05 08:38:25;;;;;;;5.07;4.87;;;;;;;13.97;75.48;100358.59;4363489;32;20564;-71
2021/10/05 08:40:50;;;;;;;4.90;4.70;;;;;;;13.99;74.94;100345.31;4374076;32;20066;-68
2021/10/05 08:43:16;;;;;;;6.05;5.75;;;;;;;14.38;73.52;100365.31;4356016;32;20093;-70
2021/10/05 08:45:41;;;;;;;4.80;4.60;;;;;;;14.41;72.93;100354.50;4368001;32;20590;-69
2021/10/05 08:48:07;;;;;;;4.97;4.78;;;;;;;14.00;72.38;100292.44;4361640;32;20070;-68
2021/10/05 08:50:32;;;;;;;4.60;4.40;;;;;;;14.47;71.53;100355.87;4383136;32;20094;-69
2021/10/05 08:52:57;;;;;;;4.85;4.65;;;;;;;14.43;70.98;100354.41;4364233;32;20073;-68
2021/10/05 08:55:23;;;;;;;5.90;5.62;;;;;;;14.29;71.17;100348.38;4374472;32;20069;-69
2021/10/05 08:57:49;;;;;;;4.70;4.50;;;;;;;14.21;71.46;100345.41;4373174;32;20643;-67
2021/10/05 09:00:14;;;;;;;6.28;5.97;;;;;;;14.15;72.28;100336.19;4370449;32;20633;-68
2021/10/05 09:02:48;;;;;;;4.80;4.60;;;;;;;14.05;71.90;100334.31;4371078;32;20080;-69
2021/10/05 09:05:14;;;;;;;6.25;5.95;;;;;;;13.94;71.98;100329.81;4379831;32;20061;-70
2021/10/05 09:07:45;;;;;;;4.70;4.50;;;;;;;13.99;72.58;100313.62;4378451;32;20724;-70
2021/10/05 09:10:11;;;;;;;5.72;5.45;;;;;;;14.41;71.12;100320.19;4372254;32;20093;-70
2021/10/05 09:12:36;;;;;;;4.72;4.53;;;;;;;14.65;70.46;100314.91;4388879;32;20073;-70
2021/10/05 09:15:01;;;;;;;4.70;4.50;;;;;;;14.73;70.32;100309.03;4374654;32;20069;-70
2021/10/05 09:17:28;;;;;;;4.80;4.60;;;;;;;14.98;71.13;100313.31;4373581;32;20077;-70
2021/10/05 09:19:54;;;;;;;4.70;4.50;;;;;;;15.09;69.19;100307.19;4379031;32;20144;-70
2021/10/05 09:22:25;;;;;;;6.60;6.30;;;;;;;15.07;67.70;100295.91;4359883;32;20147;-70
2021/10/05 09:24:52;;;;;;;4.65;4.45;;;;;;;15.07;67.62;100287.97;4368592;32;20099;-71
2021/10/05 09:27:17;;;;;;;6.75;6.45;;;;;;;15.25;68.47;100296.25;4375328;32;20088;-70
2021/10/05 09:29:44;;;;;;;4.80;4.60;;;;;;;15.20;66.38;100290.50;4378156;32;20085;-70
2021/10/05 09:32:11;;;;;;;4.87;4.68;;;;;;;14.46;67.51;100157.00;4373594;32;20097;-71
2021/10/05 09:34:44;;;;;;;4.60;4.40;;;;;;;15.49;66.78;100283.75;4378296;32;20506;-69
2021/10/05 09:37:19;;;;;;;5.22;5.03;;;;;;;15.62;65.88;100274.87;4370394;32;20085;-69
2021/10/05 09:40:08;;;;;;;4.57;4.37;;;;;;;15.66;66.56;100273.66;4390069;32;20175;-69
2021/10/05 09:42:40;;;;;;;5.00;4.70;;;;;;;15.84;65.23;100272.19;4382897;32;20086;-69
2021/10/05 09:45:07;;;;;;;4.60;4.40;;;;;;;15.80;65.14;100260.19;4390481;32;20069;-69
2021/10/05 09:47:35;;;;;;;4.78;4.57;;;;;;;15.63;66.41;100269.44;4383280;32;20175;-68
2021/10/05 09:50:24;;;;;;;4.75;4.55;;;;;;;15.18;66.42;100213.13;4391427;32;20114;-71
2021/10/05 09:52:51;;;;;;;4.80;4.60;;;;;;;15.59;67.22;100265.34;4379352;32;20192;-70
2021/10/05 09:55:18;;;;;;;4.85;4.65;;;;;;;15.81;66.21;100263.66;4392370;32;20065;-71
2021/10/05 09:57:44;;;;;;;4.80;4.60;;;;;;;15.92;63.54;100255.69;4379639;32;20088;-70
2021/10/05 10:00:10;;;;;;;5.35;5.12;;;;;;;16.14;62.86;100237.06;4378471;32;20126;-70
2021/10/05 10:02:37;;;;;;;5.07;4.87;;;;;;;16.30;61.87;100246.41;4381420;32;20062;-70
2021/10/05 10:05:04;;;;;;;5.10;4.90;;;;;;;16.54;62.05;100236.38;4388918;32;21027;-70
2021/10/05 10:07:30;;;;;;;4.78;4.57;;;;;;;16.67;59.34;100227.37;4368182;32;20069;-70
2021/10/05 10:09:55;;;;;;;5.20;5.00;;;;;;;16.65;59.37;100219.56;4377541;32;20074;-70
2021/10/05 10:12:20;;;;;;;6.43;6.12;;;;;;;16.54;59.40;100215.19;4363218;32;20085;-69
2021/10/05 10:14:49;;;;;;;4.97;4.78;;;;;;;16.69;59.53;100199.78;4380872;32;20101;-70
2021/10/05 10:17:22;;;;;;;6.22;5.93;;;;;;;16.84;58.84;100186.19;4375845;32;20064;-70
2021/10/05 10:19:48;;;;;;;4.75;4.55;;;;;;;17.00;57.28;100186.56;4367161;32;20569;-69
2021/10/05 10:22:13;;;;;;;6.12;5.82;;;;;;;16.95;57.59;100152.50;4364247;32;20066;-70
2021/10/05 10:24:57;;;;;;;5.53;5.22;;;;;;;17.17;56.64;100170.97;4386986;32;20980;-69
2021/10/05 10:27:23;;;;;;;6.30;6.00;;;;;;;17.28;55.15;100171.72;4365964;32;20069;-70
2021/10/05 10:29:48;;;;;;;5.00;4.80;;;;;;;17.12;57.15;100164.28;4377390;32;20890;-70
2021/10/05 10:32:15;;;;;;;6.65;6.35;;;;;;;17.31;55.96;100150.22;4375894;32;20077;-69
2021/10/05 10:34:43;;;;;;;4.80;4.60;;;;;;;17.40;54.77;100156.53;4391181;32;20058;-70
2021/10/05 10:37:10;;;;;;;5.28;5.07;;;;;;;17.53;54.41;100154.44;4392274;32;20077;-70
2021/10/05 10:39:38;;;;;;;5.10;4.90;;;;;;;17.34;54.06;100133.19;4381556;32;20087;-70
2021/10/05 10:42:04;;;;;;;5.00;4.80;;;;;;;17.42;55.28;100132.50;4378341;32;20062;-69
2021/10/05 10:44:31;;;;;;;6.15;5.80;;;;;;;17.49;54.52;100145.06;4364448;32;20076;-70
2021/10/05 10:47:15;;;;;;;4.80;4.60;;;;;;;17.56;54.16;100142.72;4390812;32;20156;-70
2021/10/05 10:50:01;;;;;;;4.78;4.57;;;;;;;17.75;53.98;100152.47;4375457;32;20823;-70
2021/10/05 10:52:35;;;;;;;5.93;5.62;;;;;;;17.74;53.35;100135.72;4373806;32;20454;-70
2021/10/05 10:55:00;;;;;;;5.25;5.05;;;;;;;17.73;53.62;100143.81;4360065;32;20078;-70
2021/10/05 10:57:39;;;;;;;5.60;5.40;;;;;;;18.01;53.69;100136.03;4363579;32;20062;-70
2021/10/05 11:00:31;;;;;;;5.10;4.90;;;;;;;17.98;51.03;100123.00;4383065;32;20140;-70
2021/10/05 11:03:01;;;;;;;5.03;4.82;;;;;;;17.96;53.11;100111.69;4375117;32;20085;-70
2021/10/05 11:05:30;;;;;;;5.20;5.00;;;;;;;17.91;52.24;100112.13;4367941;32;20331;-70
2021/10/05 11:07:56;;;;;;;5.70;5.45;;;;;;;17.92;51.80;100104.03;4389848;32;20127;-68
2021/10/05 11:10:28;;;;;;;6.22;5.93;;;;;;;18.03;53.45;100111.00;4363749;32;20810;-70
2021/10/05 11:12:55;;;;;;;5.40;5.00;;;;;;;18.22;52.82;100109.25;4359478;32;20078;-72
2021/10/05 11:15:31;;;;;;;6.40;6.10;;;;;;;18.20;52.42;100111.22;4348131;32;20066;-72
2021/10/05 11:18:05;;;;;;;5.20;5.00;;;;;;;17.52;51.89;99996.22;4368671;32;20618;-74
2021/10/05 11:20:30;;;;;;;5.07;4.87;;;;;;;18.32;51.62;100097.66;4356551;32;20077;-74
2021/10/05 11:22:59;;;;;;;5.10;4.90;;;;;;;18.37;52.15;100091.91;4368414;32;20147;-69
2021/10/05 11:25:24;;;;;;;6.47;6.18;;;;;;;18.57;52.00;100094.47;4364604;32;20689;-69
2021/10/05 11:27:50;;;;;;;5.10;4.90;;;;;;;18.63;52.25;100100.03;4370531;32;20094;-69